Terminal Aerodrome Forecast
Issued by NWS Missoula, MT

Home | Current Version | Previous Version | Text Only | Print | Product List | Glossary On
Versions: 1 2 3 4 5 6 7 8 9 10 11 12 13 14 15 16 17 18 19 20 21 22 23 24 25
000
FTUS45 KMSO 272320
TAFMSO
TAF
KMSO 272320Z 2800/2824 VRB03KT 6SM HZ BKN200
     FM280600 00000KT 4SM BR BKN150
     FM281200 00000KT 3SM BR VCSH BKN050 OVC080
     FM281900 31005KT P6SM BKN050=

USA.gov is the U.S. government's official web portal to all federal, state and local government web resources and services.